Stormwatcher's Retreat Logo




                  Temp     Hi    Low   Out    Dew  Wind  Wind   Wind    Hi    Hi   Wind   Heat    THW   THSW                Rain  Solar   Solar Hi Solar   UV    UV    Hi     Heat    Cool    In     In    In     In     In   In Air          Wind  Wind    ISS   Arc.
  Date    Time     Out   Temp   Temp   Hum    Pt. Speed   Dir    Run Speed   Dir  Chill  Index  Index  Index   Bar    Rain  Rate   Rad.  Energy    Rad.  Index  Dose   UV     D-D     D-D    Temp   Hum    Dew   Heat    EMC Density     ET   Samp   Tx   Recept  Int.
------------------------------------------------------------------------------------------------------------------------------------------------------------------------------------------------------------------------------------------------------------------------
 5/19/19 12:10a   53.3   53.3   53.2    84   48.6   7.0   SSW   1.17  13.0    SW   51.2   53.2   51.1   48.5  29.695  0.00  0.00     0     0.00      0     0.0  0.00   0.0   0.081   0.000   71.3    51   52.2   70.1   9.42  .0732    0.000   209    5    100.0   10 
 5/19/19 12:20a   53.2   53.3   53.2    84   48.5   7.0   SSW   1.17  12.0    SW   51.0   53.1   50.9   48.3  29.700  0.00  0.00     0     0.00      0     0.0  0.00   0.0   0.082   0.000   71.3    51   52.2   70.1   9.42  .0732    0.000   213    5    100.0   10 
 5/19/19 12:30a   53.2   53.2   53.1    83   48.2   7.0   SSW   1.17  14.0   SSE   51.0   53.0   50.8   48.2  29.702  0.00  0.00     0     0.00      0     0.0  0.00   0.0   0.082   0.000   71.2    51   52.1   70.0   9.43  .0732    0.000   211    5    100.0   10 
 5/19/19 12:40a   53.2   53.3   53.2    83   48.2   6.0   SSW   1.00  12.0   SSW   51.4   53.0   51.2   48.6  29.703  0.00  0.00     0     0.00      0     0.0  0.00   0.0   0.082   0.000   71.2    51   52.1   70.0   9.43  .0732    0.000   211    5    100.0   10 
 5/19/19 12:50a   53.1   53.3   53.1    84   48.4   6.0   SSW   1.00  13.0    SW   51.3   53.0   51.2   48.6  29.707  0.00  0.00     0     0.00      0     0.0  0.00   0.0   0.083   0.000   71.2    51   52.1   70.0   9.43  .0732    0.000   213    5    100.0   10 
 5/19/19  1:00a   53.2   53.2   53.1    84   48.5   6.0   SSW   1.00  13.0   SSW   51.4   53.1   51.3   48.7  29.711  0.00  0.00     0     0.00      0     0.0  0.00   0.0   0.082   0.000   71.2    51   52.1   70.0   9.43  .0733    0.001   213    5    100.0   10 
 5/19/19  1:10a   52.9   53.2   52.9    84   48.2   6.0   SSW   1.00  12.0   SSW   51.1   52.8   51.0   48.4  29.708  0.00  0.00     0     0.00      0     0.0  0.00   0.0   0.084   0.000   71.1    51   52.0   69.8   9.43  .0733    0.000   213    5    100.0   10 
 5/19/19  1:20a   52.9   53.0   52.9    83   47.9   4.0   SSW   0.67  12.0   SSE   52.2   52.7   52.0   49.4  29.710  0.00  0.00     0     0.00      0     0.0  0.00   0.0   0.084   0.000   71.0    51   52.0   69.7   9.43  .0733    0.000   214    5    100.0   10 
 5/19/19  1:30a   52.8   53.0   52.8    83   47.8   4.0     S   0.67  11.0     S   52.1   52.6   51.9   49.3  29.711  0.00  0.00     0     0.00      0     0.0  0.00   0.0   0.085   0.000   71.0    51   52.0   69.7   9.43  .0733    0.000   211    5    100.0   10 
 5/19/19  1:40a   52.6   52.8   52.6    83   47.6   2.0     S   0.33   5.0     S   52.6   52.5   52.5   49.9  29.714  0.00  0.00     0     0.00      0     0.0  0.00   0.0   0.086   0.000   70.9    51   51.9   69.6   9.43  .0733    0.000   210    5    100.0   10 
 5/19/19  1:50a   52.5   52.6   52.5    84   47.8   3.0     S   0.50   6.0   SSW   52.5   52.4   52.4   49.8  29.712  0.00  0.00     0     0.00      0     0.0  0.00   0.0   0.087   0.000   70.9    51   51.9   69.6   9.43  .0733    0.000   211    5    100.0   10 
 5/19/19  2:00a   52.5   52.6   52.5    84   47.8   2.0     S   0.33   5.0   SSW   52.5   52.4   52.4   49.8  29.714  0.00  0.00     0     0.00      0     0.0  0.00   0.0   0.087   0.000   70.9    51   51.9   69.6   9.43  .0733    0.001   211    5    100.0   10 
 5/19/19  2:10a   52.2   52.5   52.2    84   47.5   2.0     S   0.33   5.0   SSW   52.2   52.1   52.1   49.5  29.715  0.00  0.00     0     0.00      0     0.0  0.00   0.0   0.089   0.000   70.8    51   51.8   69.4   9.43  .0733    0.000   209    5    100.0   10 
 5/19/19  2:20a   52.1   52.2   52.0    84   47.4   2.0     S   0.33   7.0     E   52.1   52.0   52.0   49.4  29.720  0.00  0.00     0     0.00      0     0.0  0.00   0.0   0.090   0.000   70.8    51   51.8   69.4   9.43  .0733    0.000   213    5    100.0   10 
 5/19/19  2:30a   51.9   52.1   51.8    84   47.2   1.0     S   0.17   4.0    SE   51.9   51.9   51.9   49.3  29.721  0.00  0.00     0     0.00      0     0.0  0.00   0.0   0.091   0.000   70.7    51   51.7   69.3   9.44  .0734    0.000   212    5    100.0   10 
 5/19/19  2:40a   51.8   51.9   51.8    84   47.1   2.0     S   0.33   4.0   SSE   51.8   51.8   51.8   49.2  29.722  0.00  0.00     0     0.00      0     0.0  0.00   0.0   0.092   0.000   70.7    51   51.7   69.3   9.44  .0734    0.000   214    5    100.0   10 
 5/19/19  2:50a   51.9   52.0   51.8    84   47.2   1.0   SSW   0.17   4.0    SW   51.9   51.9   51.9   49.3  29.726  0.00  0.00     0     0.00      0     0.0  0.00   0.0   0.091   0.000   70.7    51   51.7   69.3   9.44  .0734    0.000   212    5    100.0   10 
 5/19/19  3:00a   51.8   51.9   51.8    84   47.1   1.0     S   0.17   4.0   SSE   51.8   51.8   51.8   49.2  29.725  0.00  0.00     0     0.00      0     0.0  0.00   0.0   0.092   0.000   70.6    51   51.6   69.2   9.44  .0734    0.001   212    5    100.0   10 
 5/19/19  3:10a   51.5   51.8   51.5    84   46.8   1.0   ESE   0.17   6.0   SSE   51.5   51.5   51.5   48.8  29.723  0.00  0.00     0     0.00      0     0.0  0.00   0.0   0.094   0.000   70.5    51   51.5   69.0   9.44  .0734    0.000   214    5    100.0   10 
 5/19/19  3:20a   51.4   51.5   51.4    84   46.7   1.0   ESE   0.17   3.0     E   51.4   51.4   51.4   48.7  29.719  0.00  0.00     0     0.00      0     0.0  0.00   0.0   0.094   0.000   70.5    50   51.0   68.9   9.25  .0734    0.000   210    5    100.0   10 
 5/19/19  3:30a   51.4   51.5   51.4    84   46.7   1.0   ESE   0.17   2.0   ESE   51.4   51.4   51.4   48.7  29.724  0.00  0.00     0     0.00      0     0.0  0.00   0.0   0.094   0.000   70.5    50   51.0   68.9   9.25  .0734    0.000   213    5    100.0   10 
 5/19/19  3:40a   51.0   51.4   51.0    84   46.3   1.0   ESE   0.17   6.0   ESE   51.0   51.0   51.0   48.3  29.724  0.00  0.00     0     0.00      0     0.0  0.00   0.0   0.097   0.000   70.4    50   50.9   68.8   9.25  .0734    0.000   212    5    100.0   10 
 5/19/19  3:50a   50.7   51.0   50.7    84   46.0   1.0    SE   0.17   4.0    SE   50.7   50.7   50.7   48.0  29.726  0.00  0.00     0     0.00      0     0.0  0.00   0.0   0.099   0.000   70.4    50   50.9   68.8   9.25  .0734    0.000   211    5    100.0   10 
 5/19/19  4:00a   50.5   50.7   50.5    85   46.2   1.0   ESE   0.17   4.0   ESE   50.5   50.5   50.5   47.8  29.724  0.00  0.00     0     0.00      0     0.0  0.00   0.0   0.101   0.000   70.3    50   50.8   68.7   9.25  .0735    0.001   211    5    100.0   10 
 5/19/19  4:10a   50.2   50.5   50.2    84   45.6   2.0   ESE   0.33   3.0   ESE   50.2   50.3   50.3   47.6  29.722  0.00  0.00     0     0.00      0     0.0  0.00   0.0   0.103   0.000   70.3    50   50.8   68.7   9.25  .0735    0.000   212    5    100.0   10 
 5/19/19  4:20a   49.9   50.2   49.9    85   45.6   3.0   ESE   0.50   8.0    SE   49.6   50.0   49.7   47.0  29.723  0.00  0.00     0     0.00      0     0.0  0.00   0.0   0.105   0.000   70.2    50   50.7   68.6   9.25  .0735    0.000   211    5    100.0   10 
 5/19/19  4:30a   49.6   49.9   49.6    85   45.3   4.0   ESE   0.67   8.0   ESE   48.4   49.7   48.5   45.8  29.721  0.00  0.00     0     0.00      0     0.0  0.00   0.0   0.107   0.000   70.2    50   50.7   68.6   9.25  .0735    0.000   213    5    100.0   10 
 5/19/19  4:40a   49.2   49.6   49.2    85   44.9   4.0   ESE   0.67   8.0   ESE   47.9   49.3   48.0   45.2  29.724  0.00  0.00     0     0.00      0     0.0  0.00   0.0   0.110   0.000   70.1    50   50.6   68.4   9.25  .0735    0.000   213    5    100.0   10 
 5/19/19  4:50a   49.0   49.2   49.0    85   44.7   3.0   ESE   0.50   8.0   ESE   48.5   49.1   48.6   45.8  29.724  0.00  0.00     0     0.00      0     0.0  0.00   0.0   0.111   0.000   70.1    50   50.6   68.4   9.25  .0735    0.000   213    5    100.0   10 
 5/19/19  5:00a   48.9   49.0   48.9    86   44.9   3.0   ESE   0.50   8.0     E   48.4   49.0   48.5   45.7  29.724  0.00  0.00     0     0.00      0     0.0  0.00   0.0   0.112   0.000   70.0    50   50.5   68.3   9.25  .0735    0.001   212    5    100.0   10 
 5/19/19  5:10a   48.9   49.0   48.9    86   44.9   2.0    SE   0.33   7.0   SSE   48.9   49.0   49.0   46.2  29.725  0.00  0.00     0     0.00      0     0.0  0.00   0.0   0.112   0.000   70.0    50   50.5   68.3   9.25  .0735    0.000   214    5    100.0   10 
 5/19/19  5:20a   48.8   48.9   48.8    86   44.8   4.0   ESE   0.67   8.0   ESE   47.5   48.9   47.6   44.8  29.731  0.00  0.00     0     0.00      0     0.0  0.00   0.0   0.113   0.000   69.9    50   50.4   68.2   9.25  .0735    0.000   209    5    100.0   10 
 5/19/19  5:30a   48.7   48.8   48.7    86   44.7   4.0   ESE   0.67   8.0    SE   47.4   48.8   47.5   44.7  29.735  0.00  0.00     0     0.00      0     0.0  0.00   0.0   0.113   0.000   69.9    50   50.4   68.2   9.25  .0736    0.000   213    5    100.0   10 
 5/19/19  5:40a   48.5   48.7   48.5    86   44.5   5.0   ESE   0.83   8.0   ESE   46.5   48.6   46.6   43.8  29.739  0.00  0.00     0     0.00      0     0.0  0.00   0.0   0.115   0.000   69.8    50   50.3   68.2   9.25  .0736    0.000   213    5    100.0   10 
 5/19/19  5:50a   48.1   48.5   48.1    86   44.1   5.0   ESE   0.83   9.0   ESE   46.0   48.1   46.0   43.3  29.740  0.00  0.00     2     0.03      5     0.0  0.00   0.0   0.117   0.000   69.8    50   50.3   68.2   9.25  .0736    0.000   211    5    100.0   10 
 5/19/19  6:00a   48.0   48.1   47.9    86   44.0   3.0   ESE   0.50   8.0     E   47.4   48.0   47.4   44.8  29.740  0.00  0.00     8     0.11     11     0.0  0.00   0.0   0.118   0.000   69.7    50   50.2   68.1   9.26  .0736    0.000   212    5    100.0   10 
 5/19/19  6:10a   47.9   47.9   47.9    87   44.2   4.0   ESE   0.67   9.0     E   46.5   48.0   46.6   44.2  29.743  0.00  0.00    14     0.20     18     0.0  0.00   0.0   0.119   0.000   69.7    50   50.2   68.1   9.26  .0736    0.000   214    5    100.0   10 
 5/19/19  6:20a   48.1   48.1   47.9    87   44.4   4.0   ESE   0.67   7.0    SE   46.7   48.2   46.8   44.6  29.744  0.00  0.00    25     0.36     32     0.0  0.00   0.0   0.117   0.000   69.6    50   50.1   68.0   9.26  .0736    0.000   213    5    100.0   10 
 5/19/19  6:30a   48.2   48.2   48.1    87   44.5   4.0   ESE   0.67  10.0    SE   46.8   48.3   46.9   45.0  29.745  0.00  0.00    37     0.53     39     0.0  0.00   0.0   0.117   0.000   69.5    50   50.0   67.9   9.26  .0736    0.000   212    5    100.0   10 
 5/19/19  6:40a   48.1   48.2   48.1    87   44.4   4.0   ESE   0.67   8.0   ESE   46.7   48.2   46.8   44.9  29.746  0.00  0.00    34     0.49     37     0.0  0.00   0.0   0.117   0.000   69.4    50   49.9   67.9   9.26  .0737    0.000   214    5    100.0   10 
 5/19/19  6:50a   48.1   48.1   48.1    87   44.4   4.0   ESE   0.67   8.0    SE   46.7   48.2   46.8   44.9  29.745  0.00  0.00    37     0.53     40     0.0  0.00   0.0   0.117   0.000   69.4    50   49.9   67.9   9.26  .0737    0.000   211    5    100.0   10 
 5/19/19  7:00a   48.4   48.4   48.1    87   44.7   4.0   ESE   0.67   7.0   ESE   47.0   48.5   47.1   45.4  29.746  0.00  0.00    46     0.66     53     0.0  0.00   0.0   0.115   0.000   69.4    50   49.9   67.9   9.26  .0737    0.001   213    5    100.0   10 
 5/19/19  7:10a   48.5   48.5   48.4    87   44.8   3.0   ESE   0.50   7.0    SE   48.0   48.6   48.1   46.6  29.748  0.00  0.00    54     0.77     56     0.0  0.00   0.0   0.115   0.000   69.4    50   49.9   67.9   9.26  .0737    0.000   213    5    100.0   10 
 5/19/19  7:20a   48.1   48.5   48.1    87   44.4   5.0   ESE   0.83  11.0    SE   46.0   48.2   46.1   44.6  29.752  0.00  0.00    55     0.79     58     0.0  0.00   0.0   0.117   0.000   69.4    50   49.9   67.9   9.26  .0737    0.000   212    5    100.0   10 
 5/19/19  7:30a   48.1   48.1   47.9    87   44.4   6.0   ESE   1.00  10.0    SE   45.4   48.2   45.5   47.2  29.753  0.00  0.00    93     1.33    213     0.0  0.00   0.0   0.117   0.000   69.4    50   49.9   67.9   9.26  .0737    0.000   212    5    100.0   10 
 5/19/19  7:40a   48.9   48.9   48.1    88   45.5   4.0   ESE   0.67   9.0   ESE   47.6   49.1   47.8   55.0  29.760  0.00  0.00   241     3.45    267     0.0  0.00   0.0   0.112   0.000   69.4    50   49.9   67.9   9.26  .0737    0.000   211    5    100.0   10 
 5/19/19  7:50a   49.7   49.7   48.9    88   46.3   4.0   ESE   0.67   8.0   ESE   48.5   49.9   48.7   57.6  29.761  0.00  0.00   289     4.14    306     0.0  0.00   0.0   0.106   0.000   69.4    50   49.9   67.9   9.26  .0737    0.000   212    5    100.0   10 
 5/19/19  8:00a   50.3   50.3   49.7    87   46.6   4.0   ESE   0.67   8.0   ESE   49.2   50.5   49.4   57.9  29.763  0.00  0.00   292     4.19    323     0.0  0.00   0.0   0.102   0.000   69.3    50   49.9   67.8   9.26  .0737    0.003   212    5    100.0   10 
 5/19/19  8:10a   50.5   50.5   50.3    87   46.8   5.0   ESE   0.83   8.0    SE   48.8   50.6   48.9   58.1  29.766  0.00  0.00   324     4.64    334     0.0  0.00   0.0   0.101   0.000   69.4    50   49.9   67.9   9.26  .0737    0.000   211    5    100.0   10 
 5/19/19  8:20a   50.8   50.8   50.5    86   46.8   5.0   ESE   0.83   9.0    SE   49.2   50.9   49.3   58.5  29.769  0.00  0.00   336     4.82    348     0.0  0.00   0.0   0.099   0.000   69.3    50   49.9   67.8   9.26  .0737    0.000   212    5    100.0   10 
 5/19/19  8:30a   51.3   51.3   50.8    86   47.3   5.0   ESE   0.83   9.0   ESE   49.8   51.3   49.8   60.0  29.771  0.00  0.00   385     5.52    401     0.0  0.00   0.0   0.095   0.000   69.3    50   49.9   67.8   9.26  .0737    0.000   212    5    100.0   10 
 5/19/19  8:40a   51.8   51.8   51.4    85   47.4   6.0   ESE   1.00   9.0   ESE   49.8   51.8   49.8   60.6  29.770  0.00  0.00   425     6.09    443     0.0  0.00   0.0   0.092   0.000   69.3    50   49.9   67.8   9.26  .0737    0.000   214    5    100.0   10 
 5/19/19  8:50a   52.3   52.3   51.8    85   47.9   6.0   ESE   1.00   9.0   ESE   50.4   52.3   50.4   61.5  29.771  0.00  0.00   457     6.55    464     0.0  0.00   0.0   0.088   0.000   69.3    50   49.9   67.8   9.26  .0737    0.000   213    5    100.0   10 
 5/19/19  9:00a   52.9   52.9   52.3    84   48.2   5.0   ESE   0.83   9.0     E   51.6   52.8   51.5   62.3  29.773  0.00  0.00   470     6.74    483     0.0  0.00   0.0   0.084   0.000   69.3    50   49.9   67.8   9.26  .0737    0.008   210    5    100.0   10 
 5/19/19  9:10a   53.5   53.5   52.9    84   48.8   5.0   ESE   0.83  10.0     E   52.3   53.4   52.2   63.2  29.776  0.00  0.00   503     7.21    512     0.0  0.00   0.0   0.080   0.000   69.3    50   49.9   67.8   9.26  .0738    0.000   212    5    100.0   10 
 5/19/19  9:20a   53.9   53.9   53.5    83   48.9   6.0   ESE   1.00  10.0   ESE   52.3   53.7   52.1   63.4  29.776  0.00  0.00   538     7.71    561     0.0  0.00   0.0   0.077   0.000   69.2    50   49.8   67.7   9.27  .0738    0.000   212    5    100.0   10 
 5/19/19  9:30a   55.0   55.0   53.9    83   49.9   4.0   ESE   0.67  10.0    SE   54.6   54.8   54.4   66.3  29.774  0.00  0.00   587     8.41    605     0.0  0.00   0.0   0.069   0.000   69.2    50   49.8   67.7   9.27  .0738    0.000   213    5    100.0   10 
 5/19/19  9:40a   55.9   55.9   55.0    82   50.5   4.0   ESE   0.67   7.0   ESE   55.7   55.7   55.5   67.3  29.770  0.00  0.00   607     8.70    631     0.0  0.00   0.0   0.063   0.000   69.2    50   49.8   67.7   9.27  .0738    0.000   213    5    100.0   10 
 5/19/19  9:50a   57.0   57.0   55.9    81   51.2   3.0   ESE   0.50   7.0   ESE   57.0   56.7   56.7   69.4  29.772  0.00  0.00   671     9.62    693     0.0  0.00   0.0   0.056   0.000   69.2    50   49.8   67.7   9.27  .0738    0.000   213    5    100.0   10 
 5/19/19 10:00a   57.9   57.9   57.1    80   51.8   2.0   ESE   0.33   5.0    NE   57.9   57.7   57.7   69.7  29.771  0.00  0.00   671     9.62    700     0.0  0.00   0.0   0.049   0.000   69.2    50   49.8   67.7   9.27  .0738    0.012   212    5    100.0   10 
 5/19/19 10:10a   56.8   57.9   56.8    78   50.0   3.0     N   0.50   5.0     N   56.8   56.4   56.4   68.7  29.767  0.00  0.00   713    10.22    740     0.0  0.00   0.0   0.057   0.000   69.2    51   50.3   67.8   9.47  .0737    0.000   214    5    100.0   10 
 5/19/19 10:20a   56.7   56.8   56.6    78   49.9   3.0   NNE   0.50   4.0   NNE   56.7   56.3   56.3   68.6  29.767  0.00  0.00   741    10.62    752     0.0  0.00   0.0   0.058   0.000   69.2    51   50.3   67.8   9.47  .0737    0.000   211    5    100.0   10 
 5/19/19 10:30a   56.8   56.9   56.7    78   50.0   3.0     N   0.50   4.0     N   56.8   56.4   56.4   68.1  29.769  0.00  0.00   738    10.58    763     0.0  0.00   0.0   0.057   0.000   69.2    51   50.3   67.8   9.47  .0737    0.000   212    5    100.0   10 
 5/19/19 10:40a   56.8   56.8   56.7    79   50.4   2.0     N   0.33   4.0   NNW   56.8   56.5   56.5   68.1  29.777  0.00  0.00   760    10.89    788     0.0  0.00   0.0   0.057   0.000   69.3    51   50.4   67.9   9.46  .0737    0.000   213    5    100.0   10 
 5/19/19 10:50a   56.7   56.9   56.6    78   49.9   4.0     N   0.67   6.0     N   56.6   56.3   56.2   67.2  29.778  0.00  0.00   756    10.84    789     0.0  0.00   0.0   0.058   0.000   69.3    51   50.4   67.9   9.46  .0737    0.000   213    5    100.0   10 
 5/19/19 11:00a   56.6   56.8   56.6    77   49.5   5.0     N   0.83   8.0     N   56.0   56.2   55.6   66.9  29.779  0.00  0.00   795    11.40    819     0.0  0.00   0.0   0.058   0.000   69.4    51   50.5   68.0   9.46  .0737    0.015   212    5    100.0   10 
 5/19/19 11:10a   56.5   56.5   56.4    78   49.7   5.0     N   0.83   8.0   NNE   55.9   56.1   55.5   67.3  29.781  0.00  0.00   843    12.08    858     0.0  0.00   0.0   0.059   0.000   69.5    51   50.6   68.0   9.46  .0737    0.000   211    5    100.0   10 
 5/19/19 11:20a   56.7   56.7   56.5    78   49.9   5.0     N   0.83   9.0     N   56.1   56.3   55.7   67.5  29.783  0.00  0.00   866    12.41    874     0.0  0.00   0.0   0.058   0.000   69.5    51   50.6   68.0   9.46  .0737    0.000   213    5    100.0   10 
 5/19/19 11:30a   56.2   56.7   56.1    77   49.1   5.0     N   0.83   8.0   NNE   55.5   55.7   55.0   65.6  29.789  0.00  0.00   815    11.68    847     0.0  0.00   0.0   0.061   0.000   69.5    51   50.6   68.0   9.46  .0737    0.000   214    5    100.0   10 
 5/19/19 11:40a   56.9   56.9   56.0    79   50.5   4.0     N   0.67   8.0   NNE   56.9   56.6   56.6   67.8  29.792  0.01  0.00   866    12.41    891     0.0  0.00   0.0   0.056   0.000   69.6    51   50.7   68.1   9.46  .0737    0.000   213    5    100.0   10 
 5/19/19 11:50a   56.7   57.1   56.7    78   49.9   4.0   NNW   0.67   6.0     N   56.6   56.3   56.2   67.3  29.795  0.00  0.00   881    12.63    900     0.0  0.00   0.0   0.058   0.000   69.7    51   50.8   68.2   9.46  .0737    0.000   213    5    100.0   10 
 5/19/19 12:00p   57.2   57.2   56.7    78   50.4   4.0    NW   0.67   6.0    NW   57.2   56.8   56.8   68.1  29.800  0.00  0.00   908    13.02    914     0.0  0.00   0.0   0.054   0.000   69.7    51   50.8   68.2   9.46  .0737    0.018   213    5    100.0   10 
 5/19/19 12:10p   57.3   57.3   57.1    78   50.5   4.0   NNE   0.67   8.0   NNE   57.3   56.9   56.9   68.2  29.804  0.00  0.00   921    13.20    933     0.0  0.00   0.0   0.053   0.000   69.7    51   50.8   68.2   9.46  .0737    0.000   210    5    100.0   10 
 5/19/19 12:20p   57.2   57.3   56.8    78   50.4   5.0     N   0.83   9.0     N   56.6   56.8   56.2   67.1  29.803  0.00  0.00   909    13.03    939     0.0  0.00   0.0   0.054   0.000   69.8    51   50.9   68.2   9.45  .0737    0.000   213    5    100.0   10 
 5/19/19 12:30p   57.0   57.5   57.0    76   49.5   5.0     N   0.83   8.0     N   56.4   56.5   55.9   66.1  29.802  0.00  0.00   876    12.56    898     0.0  0.00   0.0   0.056   0.000   69.8    51   50.9   68.2   9.45  .0737    0.000   213    5    100.0   10 
 5/19/19 12:40p   57.2   57.2   56.9    77   50.1   5.0     N   0.83   8.0   NNW   56.6   56.8   56.2   66.5  29.803  0.00  0.00   885    12.69    923     0.0  0.00   0.0   0.054   0.000   69.9    51   50.9   68.3   9.45  .0737    0.000   212    5    100.0   10 
 5/19/19 12:50p   57.5   57.6   57.1    76   50.0   5.0     N   0.83   8.0     N   57.0   57.1   56.6   67.2  29.806  0.00  0.00   919    13.17    940     0.0  0.00   0.0   0.052   0.000   69.9    51   50.9   68.3   9.45  .0737    0.000   210    5    100.0   10 
 5/19/19  1:00p   57.5   57.5   57.2    77   50.3   5.0     N   0.83   8.0     N   57.0   57.1   56.6   67.7  29.807  0.00  0.00   953    13.66    956     0.0  0.00   0.0   0.052   0.000   70.0    51   51.0   68.4   9.45  .0737    0.019   214    5    100.0   10 
 5/19/19  1:10p   57.6   57.6   57.3    78   50.8   5.0     N   0.83   8.0   NNE   57.1   57.3   56.8   68.0  29.805  0.00  0.00   965    13.83    969     0.0  0.00   0.0   0.051   0.000   70.0    51   51.0   68.4   9.45  .0737    0.000   213    5    100.0   10 
 5/19/19  1:20p   57.9   57.9   57.5    78   51.1   4.0     N   0.67   8.0   NNE   57.9   57.6   57.6   68.8  29.806  0.00  0.00   959    13.75    972     0.0  0.00   0.0   0.049   0.000   70.1    51   51.1   68.5   9.45  .0737    0.000   209    5    100.0   10 
 5/19/19  1:30p   58.1   58.1   57.9    77   50.9   4.0     N   0.67   8.0   NNW   58.1   57.7   57.7   68.5  29.806  0.00  0.00   939    13.46    967     0.0  0.00   0.0   0.048   0.000   70.2    51   51.2   68.6   9.45  .0737    0.000   214    5    100.0   10 
 5/19/19  1:40p   58.4   58.4   58.0    77   51.2   4.0     N   0.67   8.0     N   58.4   58.0   58.0   69.1  29.806  0.00  0.00   949    13.60    954     0.0  0.00   0.0   0.046   0.000   70.3    51   51.3   68.8   9.44  .0736    0.000   212    5    100.0   10 
 5/19/19  1:50p   58.9   59.0   58.4    76   51.3   4.0     N   0.67   8.0   NNE   58.9   58.5   58.5   69.9  29.809  0.00  0.00   965    13.83    981     0.0  0.00   0.0   0.042   0.000   70.3    51   51.3   68.8   9.44  .0737    0.000   213    5    100.0   10 
 5/19/19  2:00p   58.6   58.9   58.6    76   51.1   5.0     N   0.83   8.0   NNE   58.3   58.2   57.9   69.5  29.811  0.00  0.00   975    13.98   1004     0.0  0.00   0.0   0.044   0.000   70.3    51   51.3   68.8   9.44  .0737    0.020   214    5    100.0   10 
 5/19/19  2:10p   58.8   59.0   58.6    75   50.9   5.0     N   0.83   8.0     N   58.6   58.3   58.1   69.9  29.816  0.00  0.00   977    14.01   1013     0.0  0.00   0.0   0.043   0.000   70.4    51   51.4   68.9   9.44  .0737    0.000   213    5    100.0   10 
 5/19/19  2:20p   58.9   58.9   58.5    76   51.3   5.0     N   0.83   9.0    NE   58.7   58.5   58.3   69.9  29.815  0.00  0.00   954    13.68    970     0.0  0.00   0.0   0.042   0.000   70.5    51   51.5   69.0   9.44  .0736    0.000   213    5    100.0   10 
 5/19/19  2:30p   58.3   58.9   58.3    74   50.0   6.0     N   1.00   9.0   NNE   57.6   57.7   57.0   67.6  29.813  0.00  0.00   880    12.61    974     0.0  0.00   0.0   0.047   0.000   70.6    51   51.6   69.2   9.44  .0736    0.000   211    5    100.0   10 
 5/19/19  2:40p   58.5   58.5   58.2    75   50.6   6.0     N   1.00   9.0   NNE   57.8   58.0   57.3   69.0  29.813  0.00  0.00   934    13.39    983     0.0  0.00   0.0   0.045   0.000   70.7    51   51.7   69.3   9.44  .0736    0.000   213    5    100.0   10 
 5/19/19  2:50p   58.2   58.5   58.0    76   50.7   6.0     N   1.00  10.0     N   57.4   57.8   57.0   68.3  29.811  0.00  0.00   896    12.84    919     0.0  0.00   0.0   0.047   0.000   70.7    51   51.7   69.3   9.44  .0736    0.000   213    5    100.0   10 
 5/19/19  3:00p   57.9   58.2   57.9    75   50.0   7.0     N   1.17  10.0     N   56.7   57.4   56.2   66.7  29.814  0.00  0.00   839    12.03    891     0.0  0.00   0.0   0.049   0.000   70.8    51   51.8   69.4   9.43  .0736    0.019   212    5    100.0   10 
 5/19/19  3:10p   58.2   58.2   57.9    76   50.7   6.0     N   1.00  10.0   NNW   57.4   57.8   57.0   69.8  29.820  0.00  0.00   951    13.63   1053     0.0  0.00   0.0   0.047   0.000   70.9    51   51.9   69.6   9.43  .0736    0.000   213    5    100.0   10 
 5/19/19  3:20p   58.8   58.8   58.0    77   51.6   6.0     N   1.00  10.0   NNE   58.2   58.4   57.8   70.0  29.819  0.00  0.00   886    12.70    937     0.0  0.00   0.0   0.043   0.000   71.0    51   52.0   69.7   9.43  .0736    0.000   213    5    100.0   10 
 5/19/19  3:30p   58.6   59.0   58.6    75   50.7   6.0     N   1.00  10.0     N   57.9   58.1   57.4   69.2  29.823  0.00  0.00   848    12.16    888     0.0  0.00   0.0   0.044   0.000   71.0    51   52.0   69.7   9.43  .0736    0.000   210    5    100.0   10 
 5/19/19  3:40p   59.0   59.0   58.5    75   51.1   6.0     N   1.00  10.0     N   58.4   58.5   57.9   69.6  29.823  0.00  0.00   815    11.68    837     0.0  0.00   0.0   0.042   0.000   71.1    51   52.0   69.8   9.43  .0735    0.000   211    5    100.0   10 
 5/19/19  3:50p   59.0   59.4   58.9    74   50.7   7.0     N   1.17  10.0   NNE   58.0   58.5   57.5   69.6  29.824  0.00  0.00   831    11.91    853     0.0  0.00   0.0   0.042   0.000   71.1    51   52.0   69.8   9.43  .0736    0.000   213    5    100.0   10 
 5/19/19  4:00p   59.0   59.1   58.9    74   50.7   6.0     N   1.00  10.0     N   58.4   58.5   57.9   70.6  29.825  0.00  0.00   824    11.81    830     0.0  0.00   0.0   0.042   0.000   71.2    51   52.1   70.0   9.43  .0735    0.018   212    5    100.0   10 
 5/19/19  4:10p   60.1   60.1   59.0    73   51.4   6.0     N   1.00  11.0    NE   59.7   59.6   59.2   71.4  29.824  0.00  0.00   769    11.02    826     0.0  0.00   0.0   0.034   0.000   71.3    51   52.2   70.1   9.42  .0735    0.000   212    5    100.0   10 
 5/19/19  4:20p   59.8   60.0   59.5    73   51.1   7.0     N   1.17  11.0     N   59.0   59.3   58.5   69.5  29.824  0.00  0.00   695     9.96    754     0.0  0.00   0.0   0.036   0.000   71.4    51   52.3   70.3   9.42  .0735    0.000   212    5    100.0   10 
 5/19/19  4:30p   60.3   60.3   59.8    73   51.6   6.0   NNE   1.00  10.0     N   60.0   59.8   59.5   71.5  29.824  0.00  0.00   702    10.06    744     0.0  0.00   0.0   0.033   0.000   71.4    51   52.3   70.3   9.42  .0735    0.000   213    5    100.0   10 
 5/19/19  4:40p   61.0   61.2   60.4    71   51.5   7.0    NE   1.17  11.0   NNE   60.4   60.5   59.9   71.5  29.827  0.00  0.00   673     9.65    715     0.0  0.00   0.0   0.028   0.000   71.4    51   52.3   70.3   9.42  .0735    0.000   213    5    100.0   10 
 5/19/19  4:50p   60.5   61.0   60.5    71   51.0   6.0   NNE   1.00  10.0    NE   60.2   60.0   59.7   71.1  29.826  0.00  0.00   622     8.92    696     0.0  0.00   0.0   0.031   0.000   71.5    51   52.4   70.4   9.42  .0735    0.000   211    5    100.0   10 
 5/19/19  5:00p   60.7   60.7   60.1    73   52.0   7.0    NE   1.17  12.0   NNE   60.0   60.3   59.6   70.3  29.823  0.00  0.00   574     8.23    629     0.0  0.00   0.0   0.030   0.000   71.6    51   52.5   70.6   9.42  .0735    0.015   213    5    100.0   10 
 5/19/19  5:10p   61.4   61.5   60.7    71   51.9   7.0    NE   1.17  11.0   NNE   60.9   60.9   60.4   72.5  29.826  0.00  0.00   607     8.70    624     0.0  0.00   0.0   0.025   0.000   71.7    51   52.6   70.7   9.42  .0735    0.000   213    5    100.0   10 
 5/19/19  5:20p   61.3   61.6   61.3    70   51.4   6.0    NE   1.00  10.0   ENE   61.2   60.7   60.6   72.5  29.834  0.00  0.00   561     8.04    591     0.0  0.00   0.0   0.026   0.000   71.7    51   52.6   70.7   9.42  .0735    0.000   211    5    100.0   10 
 5/19/19  5:30p   60.6   61.3   60.6    71   51.1   7.0     N   1.17  11.0   ENE   59.9   60.1   59.4   71.1  29.834  0.00  0.00   540     7.74    554     0.0  0.00   0.0   0.031   0.000   71.7    51   52.6   70.7   9.42  .0735    0.000   214    5    100.0   10 
 5/19/19  5:40p   59.6   60.6   59.6    72   50.6   6.0     N   1.00  10.0     N   59.1   59.0   58.5   70.8  29.836  0.00  0.00   526     7.54    540     0.0  0.00   0.0   0.038   0.000   71.8    51   52.7   70.9   9.41  .0735    0.000   211    5    100.0   10 
 5/19/19  5:50p   59.1   59.6   59.1    73   50.5   6.0     N   1.00  11.0   NNE   58.5   58.5   57.9   68.9  29.838  0.00  0.00   457     6.55    504     0.0  0.00   0.0   0.041   0.000   72.0    52   53.4   71.3   9.61  .0734    0.000   213    5    100.0   10 
 5/19/19  6:00p   59.0   59.3   59.0    73   50.4   6.0     N   1.00  10.0   NNE   58.4   58.4   57.8   69.8  29.839  0.00  0.00   463     6.64    497     0.0  0.00   0.0   0.042   0.000   72.0    52   53.4   71.3   9.61  .0734    0.012   213    5    100.0   10 
 5/19/19  6:10p   59.2   59.2   59.0    73   50.5   6.0     N   1.00  10.0     N   58.6   58.6   58.0   69.1  29.839  0.00  0.00   412     5.91    448     0.0  0.00   0.0   0.040   0.000   72.1    52   53.5   71.4   9.61  .0734    0.000   211    5    100.0   10 
 5/19/19  6:20p   59.6   59.6   59.2    74   51.3   5.0     N   0.83  10.0    NE   59.5   59.1   59.0   71.5  29.839  0.00  0.00   428     6.14    443     0.0  0.00   0.0   0.038   0.000   72.1    52   53.5   71.4   9.61  .0734    0.000   212    5    100.0   10 
 5/19/19  6:30p   59.5   59.7   59.5    73   50.8   5.0     N   0.83   9.0     N   59.4   59.0   58.9   71.0  29.839  0.00  0.00   397     5.69    431     0.0  0.00   0.0   0.038   0.000   72.2    52   53.6   71.5   9.61  .0734    0.000   213    5    100.0   10 
 5/19/19  6:40p   59.4   59.8   59.4    73   50.7   5.0     N   0.83   9.0   NNE   59.3   58.9   58.8   68.4  29.843  0.00  0.00   318     4.56    348     0.0  0.00   0.0   0.039   0.000   72.3    52   53.7   71.7   9.60  .0734    0.000   211    5    100.0   10 
 5/19/19  6:50p   59.5   59.6   59.3    73   50.8   5.0   NNE   0.83   9.0   ENE   59.4   59.0   58.9   68.0  29.841  0.00  0.00   294     4.21    316     0.0  0.00   0.0   0.038   0.000   72.3    52   53.7   71.7   9.60  .0734    0.000   214    5    100.0   10 
 5/19/19  7:00p   58.9   59.7   58.9    73   50.3   4.0   NNE   0.67   8.0     N   58.9   58.3   58.3   62.2  29.839  0.00  0.00   157     2.25    262     0.0  0.00   0.0   0.042   0.000   72.3    52   53.7   71.7   9.60  .0734    0.008   213    5    100.0   10 
 5/19/19  7:10p   58.5   58.9   58.5    74   50.2   4.0     N   0.67   9.0     N   58.5   57.9   57.9   63.4  29.843  0.00  0.00   189     2.71    213     0.0  0.00   0.0   0.045   0.000   72.3    52   53.7   71.7   9.60  .0734    0.000   212    5    100.0   10 
 5/19/19  7:20p   58.6   58.6   58.3    75   50.7   4.0     N   0.67   7.0   NNE   58.6   58.1   58.1   59.2  29.844  0.00  0.00   196     2.81    209     0.0  0.00   0.0   0.044   0.000   72.4    52   53.8   71.8   9.60  .0734    0.000   214    5    100.0   10 
 5/19/19  7:30p   58.6   58.7   58.6    75   50.7   4.0     N   0.67   6.0     N   58.6   58.1   58.1   58.4  29.842  0.00  0.00   159     2.28    178     0.0  0.00   0.0   0.044   0.000   72.5    51   53.3   71.9   9.40  .0734    0.000   211    5    100.0   10 
 5/19/19  7:40p   58.0   58.6   58.0    74   49.8   4.0     N   0.67   8.0     N   58.0   57.4   57.4   56.8  29.849  0.00  0.00   119     1.71    148     0.0  0.00   0.0   0.049   0.000   72.5    51   53.3   71.9   9.40  .0734    0.000   210    5    100.0   10 
 5/19/19  7:50p   57.7   58.1   57.7    75   49.8   3.0   NNE   0.50   5.0     N   57.7   57.2   57.2   55.6  29.850  0.00  0.00    72     1.03    109     0.0  0.00   0.0   0.051   0.000   72.5    51   53.3   71.9   9.40  .0734    0.000   211    5    100.0   10 
 5/19/19  8:00p   57.5   57.7   57.5    76   50.0   3.0    NE   0.50   5.0     N   57.5   57.1   57.1   55.2  29.849  0.00  0.00    56     0.80     70     0.0  0.00   0.0   0.052   0.000   72.5    51   53.3   71.9   9.40  .0734    0.003   210    5    100.0   10 
 5/19/19  8:10p   57.1   57.5   57.1    76   49.6   3.0    NE   0.50   6.0   ENE   57.1   56.6   56.6   54.3  29.853  0.00  0.00    37     0.53     42     0.0  0.00   0.0   0.055   0.000   72.5    51   53.3   71.9   9.40  .0734    0.000   211    5    100.0   10 
 5/19/19  8:20p   56.6   57.1   56.6    76   49.1   3.0    NE   0.50   5.0     N   56.6   56.1   56.1   53.6  29.855  0.00  0.00    27     0.39     33     0.0  0.00   0.0   0.058   0.000   72.5    51   53.3   71.9   9.40  .0734    0.000   210    5    100.0   10 
 5/19/19  8:30p   56.2   56.6   56.2    77   49.1   3.0    NE   0.50   5.0    NE   56.2   55.7   55.7   52.9  29.857  0.00  0.00    13     0.19     18     0.0  0.00   0.0   0.061   0.000   72.4    51   53.2   71.7   9.40  .0734    0.000   210    5    100.0   10 
 5/19/19  8:40p   55.8   56.1   55.8    78   49.0   2.0    NE   0.33   5.0    NE   55.8   55.4   55.4   52.4  29.861  0.00  0.00     6     0.09      9     0.0  0.00   0.0   0.064   0.000   72.4    51   53.2   71.7   9.40  .0734    0.000   211    5    100.0   10 
 5/19/19  8:50p   55.6   55.9   55.6    78   48.8   1.0   ENE   0.17   4.0   ENE   55.6   55.2   55.2   52.0  29.865  0.00  0.00     0     0.00      5     0.0  0.00   0.0   0.065   0.000   72.4    51   53.2   71.7   9.40  .0734    0.000   213    5    100.0   10 
 5/19/19  9:00p   55.3   55.6   55.3    79   48.9   1.0   ENE   0.17   2.0   ENE   55.3   55.0   55.0   51.8  29.865  0.00  0.00     0     0.00      0     0.0  0.00   0.0   0.067   0.000   72.4    51   53.2   71.7   9.40  .0734    0.001   213    5    100.0   10 
 5/19/19  9:10p   55.0   55.3   55.0    79   48.6   0.0   ENE   0.00   3.0   ENE   55.0   54.7   54.7   51.5  29.864  0.00  0.00     0     0.00      0     0.0  0.00   0.0   0.069   0.000   72.3    51   53.2   71.6   9.40  .0734    0.000   212    5    100.0   10 
 5/19/19  9:20p   54.6   55.0   54.6    79   48.2   0.0   ENE   0.00   1.0   ENE   54.6   54.3   54.3   51.1  29.862  0.00  0.00     0     0.00      0     0.0  0.00   0.0   0.072   0.000   72.3    51   53.2   71.6   9.40  .0734    0.000   213    5    100.0   10 
 5/19/19  9:30p   54.2   54.6   54.2    79   47.8   0.0   ENE   0.00   1.0   ENE   54.2   53.9   53.9   50.7  29.864  0.00  0.00     0     0.00      0     0.0  0.00   0.0   0.075   0.000   72.3    51   53.2   71.6   9.40  .0734    0.000   212    5    100.0   10 
 5/19/19  9:40p   53.9   54.2   53.9    80   47.9   0.0   ---   0.00   0.0   ---   53.9   53.6   53.6   50.4  29.869  0.00  0.00     0     0.00      0     0.0  0.00   0.0   0.077   0.000   72.3    51   53.2   71.6   9.40  .0735    0.000   213    5    100.0   10 
 5/19/19  9:50p   53.6   53.9   53.6    79   47.2   0.0   ---   0.00   0.0   ---   53.6   53.3   53.3   50.1  29.872  0.00  0.00     0     0.00      0     0.0  0.00   0.0   0.079   0.000   72.3    51   53.2   71.6   9.40  .0735    0.000   212    5    100.0   10 
 5/19/19 10:00p   53.5   53.6   53.5    80   47.5   0.0   ---   0.00   0.0   ---   53.5   53.2   53.2   50.0  29.872  0.00  0.00     0     0.00      0     0.0  0.00   0.0   0.080   0.000   72.3    51   53.2   71.6   9.40  .0735    0.001   213    5    100.0   10 
 5/19/19 10:10p   53.5   53.5   53.3    81   47.8   0.0     S   0.00   1.0     S   53.5   53.2   53.2   50.0  29.875  0.00  0.00     0     0.00      0     0.0  0.00   0.0   0.080   0.000   72.3    51   53.2   71.6   9.40  .0735    0.000   212    5    100.0   10 
 5/19/19 10:20p   53.3   53.6   53.3    80   47.3   0.0   ---   0.00   0.0   ---   53.3   53.0   53.0   49.8  29.875  0.00  0.00     0     0.00      0     0.0  0.00   0.0   0.081   0.000   72.3    51   53.2   71.6   9.40  .0735    0.000   213    5    100.0   10 
 5/19/19 10:30p   52.8   53.3   52.8    81   47.1   0.0   ---   0.00   0.0   ---   52.8   52.6   52.6   49.4  29.871  0.00  0.00     0     0.00      0     0.0  0.00   0.0   0.085   0.000   72.2    51   53.1   71.5   9.41  .0735    0.000   212    5    100.0   10 
 5/19/19 10:40p   52.4   52.8   52.4    81   46.7   0.0   ---   0.00   0.0   ---   52.4   52.2   52.2   48.9  29.870  0.00  0.00     0     0.00      0     0.0  0.00   0.0   0.087   0.000   72.2    51   53.1   71.5   9.41  .0735    0.000   211    5    100.0   10 
 5/19/19 10:50p   52.0   52.4   52.0    81   46.3   0.0   ---   0.00   0.0   ---   52.0   51.8   51.8   48.5  29.868  0.00  0.00     0     0.00      0     0.0  0.00   0.0   0.090   0.000   72.2    51   53.1   71.5   9.41  .0735    0.000   212    5    100.0   10 
 5/19/19 11:00p   52.1   52.2   52.0    82   46.8   0.0   ---   0.00   0.0   ---   52.1   52.0   52.0   48.7  29.865  0.00  0.00     0     0.00      0     0.0  0.00   0.0   0.090   0.000   72.2    51   53.1   71.5   9.41  .0735    0.001   209    5    100.0   10 
 5/19/19 11:10p   51.9   52.1   51.9    82   46.6   0.0   ---   0.00   0.0   ---   51.9   51.8   51.8   48.5  29.864  0.00  0.00     0     0.00      0     0.0  0.00   0.0   0.091   0.000   72.2    51   53.1   71.5   9.41  .0735    0.000   212    5    100.0   10 
 5/19/19 11:20p   52.0   52.0   51.8    83   47.0   1.0   SSE   0.17   4.0     S   52.0   51.9   51.9   48.6  29.863  0.00  0.00     0     0.00      0     0.0  0.00   0.0   0.090   0.000   72.1    51   53.0   71.3   9.41  .0735    0.000   214    5    100.0   10 
 5/19/19 11:30p   51.7   52.0   51.7    82   46.4   2.0   ESE   0.33   4.0    SE   51.7   51.6   51.6   48.3  29.858  0.00  0.00     0     0.00      0     0.0  0.00   0.0   0.092   0.000   72.1    51   53.0   71.3   9.41  .0735    0.000   213    5    100.0   10 
 5/19/19 11:40p   51.6   51.7   51.6    83   46.6   2.0    SE   0.33   4.0   SSE   51.6   51.5   51.5   48.2  29.864  0.00  0.00     0     0.00      0     0.0  0.00   0.0   0.093   0.000   72.0    51   52.9   71.2   9.41  .0735    0.000   212    5    100.0   10 
 5/19/19 11:50p   51.6   51.7   51.6    83   46.6   1.0   SSE   0.17   3.0   SSE   51.6   51.5   51.5   48.2  29.865  0.00  0.00     0     0.00      0     0.0  0.00   0.0   0.093   0.000   72.0    51   52.9   71.2   9.41  .0735    0.000   211    5    100.0   10 
 5/20/19 12:00a   51.7   51.7   51.5    83   46.7   1.0   SSE   0.17   2.0   SSE   51.7   51.6   51.6   48.3  29.865  0.00  0.00     0     0.00      0     0.0  0.00   0.0   0.092   0.000   72.0    51   52.9   71.2   9.41  .0735    0.001   212    5    100.0   10 
 5/20/19 12:10a   51.5   51.7   51.5    83   46.5   1.0     S   0.17   3.0   SSW   51.5   51.4   51.4   48.1  29.868  0.00  0.00     0     0.00      0     0.0  0.00   0.0   0.094   0.000   71.9    51   52.8   71.0   9.41  .0735    0.000   213    5    100.0   10 
 5/20/19 12:20a   50.8   51.5   50.8    83   45.8   1.0   SSE   0.17   2.0     S   50.8   50.8   50.8   47.5  29.865  0.00  0.00     0     0.00      0     0.0  0.00   0.0   0.099   0.000   71.9    51   52.8   71.0   9.41  .0735    0.000   211    5    100.0   10 
 5/20/19 12:30a   50.3   50.8   50.3    83   45.3   0.0   SSE   0.00   2.0    SE   50.3   50.3   50.3   47.0  29.867  0.00  0.00     0     0.00      0     0.0  0.00   0.0   0.102   0.000   71.8    51   52.7   70.9   9.41  .0735    0.000   211    5    100.0   10 
 5/20/19 12:40a   49.8   50.3   49.8    83   44.8   1.0   SSE   0.17   4.0   SSE   49.8   49.9   49.9   46.6  29.868  0.00  0.00     0     0.00      0     0.0  0.00   0.0   0.106   0.000   71.8    51   52.7   70.9   9.41  .0735    0.000   214    5    100.0   10 
 5/20/19 12:50a   49.6   49.8   49.6    84   45.0   1.0     S   0.17   4.0    SE   49.6   49.7   49.7   46.4  29.869  0.00  0.00     0     0.00      0     0.0  0.00   0.0   0.107   0.000   71.8    51   52.7   70.9   9.41  .0735    0.000   213    5    100.0   10 
 5/20/19  1:00a   49.5   49.6   49.5    84   44.9   1.0   SSE   0.17   5.0   SSE   49.5   49.6   49.6   46.3  29.867  0.00  0.00     0     0.00      0     0.0  0.00   0.0   0.108   0.000   71.7    51   52.6   70.7   9.42  .0736    0.001   211    5    100.0   10 
 5/20/19  1:10a   49.2   49.6   49.2    84   44.6   2.0     S   0.33   6.0   ESE   49.2   49.3   49.3   46.0  29.870  0.00  0.00     0     0.00      0     0.0  0.00   0.0   0.110   0.000   71.7    51   52.6   70.7   9.42  .0736    0.000   214    5    100.0   10 
 5/20/19  1:20a   49.0   49.2   49.0    84   44.4   1.0     S   0.17   3.0    SW   49.0   49.1   49.1   45.8  29.869  0.00  0.00     0     0.00      0     0.0  0.00   0.0   0.111   0.000   71.6    51   52.5   70.6   9.42  .0736    0.000   210    5    100.0   10 
 5/20/19  1:30a   48.9   49.1   48.9    85   44.6   1.0   SSE   0.17   4.0   SSE   48.9   49.0   49.0   45.7  29.870  0.00  0.00     0     0.00      0     0.0  0.00   0.0   0.112   0.000   71.6    51   52.5   70.6   9.42  .0736    0.000   213    5    100.0   10 
 5/20/19  1:40a   49.1   49.1   48.8    85   44.8   1.0     S   0.17   4.0   SSE   49.1   49.2   49.2   45.9  29.869  0.00  0.00     0     0.00      0     0.0  0.00   0.0   0.110   0.000   71.5    51   52.4   70.4   9.42  .0736    0.000   212    5    100.0   10 
 5/20/19  1:50a   49.1   49.1   49.0    85   44.8   2.0   SSE   0.33   4.0     S   49.1   49.2   49.2   45.9  29.864  0.00  0.00     0     0.00      0     0.0  0.00   0.0   0.110   0.000   71.5    51   52.4   70.4   9.42  .0736    0.000   209    5    100.0   10 
 5/20/19  2:00a   48.8   49.1   48.8    85   44.5   1.0    SE   0.17   4.0   SSE   48.8   48.9   48.9   45.6  29.865  0.00  0.00     0     0.00      0     0.0  0.00   0.0   0.113   0.000   71.4    51   52.3   70.3   9.42  .0736    0.001   212    5    100.0   10 
 5/20/19  2:10a   48.5   48.8   48.5    85   44.2   1.0    SE   0.17   3.0    SE   48.5   48.5   48.5   45.2  29.866  0.00  0.00     0     0.00      0     0.0  0.00   0.0   0.115   0.000   71.4    51   52.3   70.3   9.42  .0736    0.000   213    5    100.0   10 
 5/20/19  2:20a   48.4   48.5   48.3    85   44.1   1.0    SE   0.17   4.0   SSE   48.4   48.4   48.4   45.1  29.869  0.00  0.00     0     0.00      0     0.0  0.00   0.0   0.115   0.000   71.3    51   52.2   70.1   9.42  .0736    0.000   212    5    100.0   10 
 5/20/19  2:30a   48.8   48.8   48.4    86   44.8   2.0     S   0.33   5.0   SSE   48.8   48.9   48.9   45.6  29.874  0.00  0.00     0     0.00      0     0.0  0.00   0.0   0.113   0.000   71.3    51   52.2   70.1   9.42  .0736    0.000   210    5    100.0   10 
 5/20/19  2:40a   48.6   48.8   48.6    85   44.3   2.0   SSE   0.33   6.0     S   48.6   48.7   48.7   45.4  29.876  0.00  0.00     0     0.00      0     0.0  0.00   0.0   0.114   0.000   71.2    51   52.1   70.0   9.43  .0737    0.000   212    5    100.0   10 
 5/20/19  2:50a   48.3   48.6   48.3    85   44.0   2.0    SE   0.33   5.0   SSE   48.3   48.3   48.3   44.9  29.877  0.00  0.00     0     0.00      0     0.0  0.00   0.0   0.116   0.000   71.2    51   52.1   70.0   9.43  .0737    0.000   210    5    100.0   10 
 5/20/19  3:00a   48.1   48.3   48.1    86   44.1   2.0   SSE   0.33   4.0     S   48.1   48.1   48.1   44.8  29.876  0.00  0.00     0     0.00      0     0.0  0.00   0.0   0.117   0.000   71.1    51   52.0   69.8   9.43  .0737    0.000   211    5    100.0   10 
 5/20/19  3:10a   48.1   48.2   48.1    86   44.1   2.0   SSE   0.33   5.0   SSE   48.1   48.1   48.1   44.8  29.873  0.00  0.00     0     0.00      0     0.0  0.00   0.0   0.117   0.000   71.1    50   51.5   69.8   9.25  .0737    0.000   214    5    100.0   10 
 5/20/19  3:20a   48.0   48.1   47.9    86   44.0   2.0    SE   0.33   5.0    SE   48.0   48.0   48.0   44.7  29.871  0.00  0.00     0     0.00      0     0.0  0.00   0.0   0.118   0.000   71.0    50   51.4   69.6   9.25  .0737    0.000   212    5    100.0   10 
 5/20/19  3:30a   48.3   48.3   48.0    86   44.3   2.0    SE   0.33   5.0    SE   48.3   48.4   48.4   45.1  29.872  0.00  0.00     0     0.00      0     0.0  0.00   0.0   0.116   0.000   71.0    50   51.4   69.6   9.25  .0737    0.000   211    5    100.0   10 
 5/20/19  3:40a   48.3   48.3   48.2    86   44.3   2.0   SSE   0.33   4.0    SE   48.3   48.4   48.4   45.1  29.874  0.00  0.00     0     0.00      0     0.0  0.00   0.0   0.116   0.000   70.9    50   51.3   69.5   9.25  .0737    0.000   213    5    100.0   10 
 5/20/19  3:50a   48.2   48.4   48.2    86   44.2   1.0   SSE   0.17   4.0    SE   48.2   48.3   48.3   45.0  29.870  0.00  0.00     0     0.00      0     0.0  0.00   0.0   0.117   0.000   70.9    50   51.3   69.5   9.25  .0737    0.000   210    5    100.0   10 
 5/20/19  4:00a   48.7   48.7   48.2    86   44.7   2.0     S   0.33   4.0     S   48.7   48.8   48.8   45.5  29.872  0.00  0.00     0     0.00      0     0.0  0.00   0.0   0.113   0.000   70.8    50   51.2   69.3   9.25  .0737    0.000   212    5    100.0   10 
 5/20/19  4:10a   48.7   48.7   48.7    86   44.7   1.0    SE   0.17   4.0    SE   48.7   48.8   48.8   45.5  29.865  0.00  0.00     0     0.00      0     0.0  0.00   0.0   0.113   0.000   70.7    50   51.1   69.2   9.25  .0737    0.000   214    5    100.0   10 
 5/20/19  4:20a   49.2   49.2   48.6    87   45.5   1.0     S   0.17   3.0     S   49.2   49.4   49.4   46.1  29.863  0.00  0.00     0     0.00      0     0.0  0.00   0.0   0.110   0.000   70.7    50   51.1   69.2   9.25  .0737    0.000   210    5    100.0   10 
 5/20/19  4:30a   49.0   49.2   48.9    86   45.0   1.0   SSE   0.17   3.0   SSW   49.0   49.1   49.1   45.8  29.866  0.00  0.00     0     0.00      0     0.0  0.00   0.0   0.111   0.000   70.6    50   51.1   69.1   9.25  .0738    0.000   213    5    100.0   10 
 5/20/19  4:40a   49.0   49.1   48.9    87   45.3   1.0    SE   0.17   4.0   SSE   49.0   49.2   49.2   45.9  29.864  0.00  0.00     0     0.00      0     0.0  0.00   0.0   0.111   0.000   70.6    50   51.1   69.1   9.25  .0738    0.000   212    5    100.0   10 
 5/20/19  4:50a   49.0   49.1   49.0    87   45.3   1.0     S   0.17   5.0     S   49.0   49.2   49.2   45.9  29.856  0.00  0.00     0     0.00      0     0.0  0.00   0.0   0.111   0.000   70.5    50   51.0   68.9   9.25  .0738    0.000   213    5    100.0   10 
 5/20/19  5:00a   49.1   49.1   48.8    87   45.4   2.0   ESE   0.33   8.0   ESE   49.1   49.3   49.3   46.0  29.849  0.00  0.00     0     0.00      0     0.0  0.00   0.0   0.110   0.000   70.5    50   51.0   68.9   9.25  .0737    0.000   213    5    100.0   10 
 5/20/19  5:10a   48.8   49.2   48.8    86   44.8   1.0     S   0.17   3.0     S   48.8   48.9   48.9   45.6  29.853  0.00  0.00     0     0.00      0     0.0  0.00   0.0   0.113   0.000   70.4    50   50.9   68.8   9.25  .0738    0.000   213    5    100.0   10 
 5/20/19  5:20a   48.8   48.8   48.7    87   45.1   1.0    SE   0.17   4.0   SSE   48.8   49.0   49.0   45.7  29.861  0.00  0.00     0     0.00      0     0.0  0.00   0.0   0.113   0.000   70.3    50   50.8   68.7   9.25  .0738    0.000   210    5    100.0   10 
 5/20/19  5:30a   48.8   48.9   48.8    86   44.8   1.0    SE   0.17   4.0   SSE   48.8   48.9   48.9   45.6  29.870  0.00  0.00     0     0.00      0     0.0  0.00   0.0   0.113   0.000   70.3    50   50.8   68.7   9.25  .0738    0.000   212    5    100.0   10 
 5/20/19  5:40a   49.0   49.1   48.8    87   45.3   1.0   SSE   0.17   4.0   SSE   49.0   49.2   49.2   45.9  29.870  0.00  0.00     0     0.00      0     0.0  0.00   0.0   0.111   0.000   70.2    50   50.7   68.6   9.25  .0738    0.000   213    5    100.0   10 
 5/20/19  5:50a   49.1   49.1   48.9    87   45.4   2.0    SE   0.33   5.0   SSW   49.1   49.3   49.3   46.0  29.874  0.00  0.00     2     0.03      5     0.0  0.00   0.0   0.110   0.000   70.1    50   50.6   68.4   9.25  .0739    0.000   213    5    100.0   10 
 5/20/19  6:00a   48.8   49.2   48.8    86   44.8   3.0     S   0.50   6.0     S   48.3   48.9   48.4   45.2  29.874  0.00  0.00     5     0.07      7     0.0  0.00   0.0   0.113   0.000   70.1    50   50.6   68.4   9.25  .0739    0.000   209    5    100.0   10 
 5/20/19  6:10a   48.9   48.9   48.7    87   45.2   2.0     S   0.33   8.0   ESE   48.9   49.1   49.1   46.0  29.876  0.00  0.00     9     0.13     11     0.0  0.00   0.0   0.112   0.000   70.1    50   50.6   68.4   9.25  .0739    0.000   212    5    100.0   10 
 5/20/19  6:20a   48.9   49.0   48.9    87   45.2   2.0     S   0.33   7.0   SSE   48.9   49.1   49.1   46.0  29.872  0.00  0.00    11     0.16     12     0.0  0.00   0.0   0.112   0.000   70.0    50   50.5   68.3   9.25  .0739    0.000   213    5    100.0   10 
 5/20/19  6:30a   49.4   49.4   48.9    87   45.7   2.0     S   0.33   5.0   SSW   49.4   49.6   49.6   46.6  29.869  0.00  0.00    13     0.19     16     0.0  0.00   0.0   0.108   0.000   70.0    50   50.5   68.3   9.25  .0739    0.000   211    5    100.0   10 
 5/20/19  6:40a   49.5   49.5   49.3    87   45.8   3.0     S   0.50   5.0     S   49.1   49.7   49.3   46.4  29.870  0.00  0.00    18     0.26     23     0.0  0.00   0.0   0.108   0.000   70.0    50   50.5   68.3   9.25  .0739    0.000   211    5    100.0   10 
 5/20/19  6:50a   49.2   49.4   49.2    86   45.2   3.0     S   0.50   8.0   SSW   48.7   49.3   48.8   46.5  29.876  0.00  0.00    47     0.67     65     0.0  0.00   0.0   0.110   0.000   70.0    50   50.5   68.3   9.25  .0739    0.000   211    5    100.0   10 
 5/20/19  7:00a   49.5   49.5   49.2    86   45.5   2.0     S   0.33   7.0   SSW   49.5   49.6   49.6   48.4  29.883  0.00  0.00    98     1.40    135     0.0  0.00   0.0   0.108   0.000   70.0    50   50.5   68.3   9.25  .0739    0.001   212    5    100.0   10 
 5/20/19  7:10a   49.6   49.6   49.5    86   45.6   2.0    SE   0.33   9.0   SSW   49.6   49.7   49.7   48.3  29.885  0.00  0.00    89     1.28    158     0.0  0.00   0.0   0.107   0.000   70.0    50   50.5   68.3   9.25  .0739    0.000   213    5    100.0   10 
 5/20/19  7:20a   49.9   50.0   49.6    86   45.9   3.0     S   0.50   9.0   SSW   49.6   50.0   49.7   49.4  29.886  0.00  0.00   141     2.02    250     0.0  0.00   0.0   0.105   0.000   70.0    50   50.5   68.3   9.25  .0739    0.000   212    5    100.0   10 
 5/20/19  7:30a   50.4   50.4   49.9    86   46.4   2.0     S   0.33  11.0   WSW   50.4   50.5   50.5   53.6  29.883  0.00  0.00   142     2.04    193     0.0  0.00   0.0   0.101   0.000   70.0    50   50.5   68.3   9.25  .0739    0.000   213    5    100.0   10 
 5/20/19  7:40a   50.7   50.7   50.3    86   46.7   3.0   SSW   0.50   7.0   SSW   50.5   50.8   50.6   56.7  29.881  0.00  0.00   214     3.07    339     0.0  0.00   0.0   0.099   0.000   70.0    50   50.5   68.3   9.25  .0739    0.000   212    5    100.0   10 
 5/20/19  7:50a   51.4   51.4   50.7    86   47.4   3.0   SSW   0.50   6.0    SW   51.2   51.4   51.2   58.8  29.875  0.00  0.00   258     3.70    362     0.0  0.00   0.0   0.094   0.000   70.0    50   50.5   68.3   9.25  .0739    0.000   213    5    100.0   10 
 5/20/19  8:00a   51.2   51.4   51.1    85   46.8   3.0   SSW   0.50   7.0   SSW   51.0   51.2   51.0   58.0  29.872  0.00  0.00   255     3.66    311     0.0  0.00   0.0   0.096   0.000   70.0    50   50.5   68.3   9.25  .0739    0.004   211    5    100.0   10 
 5/20/19  8:10a   51.9   52.0   51.2    85   47.5   4.0   SSW   0.67  10.0   SSW   51.1   51.9   51.1   57.9  29.870  0.00  0.00   261     3.74    411     0.0  0.00   0.0   0.091   0.000   70.1    50   50.6   68.4   9.25  .0739    0.000   214    5    100.0   10 
 5/20/19  8:20a   52.1   52.1   51.9    85   47.7   2.0     S   0.33   5.0   SSE   52.1   52.1   52.1   60.8  29.868  0.00  0.00   326     4.67    420     0.0  0.00   0.0   0.090   0.000   70.1    50   50.6   68.4   9.25  .0739    0.000   211    5    100.0   10 
 5/20/19  8:30a   52.3   52.3   51.8    85   47.9   6.0   SSW   1.00  14.0     S   50.4   52.3   50.4   59.0  29.869  0.00  0.00   342     4.90    496     0.0  0.00   0.0   0.088   0.000   70.1    50   50.6   68.4   9.25  .0739    0.000   211    5    100.0   10 
 5/20/19  8:40a   52.4   52.5   52.3    84   47.7  12.0   SSW   2.00  17.0     S   47.0   52.3   46.9   54.3  29.868  0.00  0.00   377     5.40    510     0.0  0.00   0.0   0.087   0.000   70.1    50   50.6   68.4   9.25  .0739    0.000   212    5    100.0   10 
 5/20/19  8:50a   52.4   52.4   52.2    84   47.7  12.0   SSW   2.00  17.0   SSW   47.0   52.3   46.9   53.0  29.866  0.00  0.00   290     4.16    492     0.0  0.00   0.0   0.087   0.000   70.1    50   50.6   68.4   9.25  .0738    0.000   212    5    100.0   10 
 5/20/19  9:00a   52.9   52.9   52.4    84   48.2   7.0   SSW   1.17  17.0    SW   50.7   52.8   50.6   62.1  29.860  0.00  0.00   509     7.30    529     0.0  0.00   0.0   0.084   0.000   70.1    50   50.6   68.4   9.25  .0738    0.007   212    5    100.0   10 
 5/20/19  9:10a   53.5   53.5   52.9    81   47.8   7.0   SSW   1.17  12.0   SSW   51.4   53.2   51.1   62.8  29.856  0.00  0.00   544     7.80    563     0.0  0.00   0.0   0.080   0.000   70.1    50   50.6   68.4   9.25  .0738    0.000   214    5    100.0   10 
 5/20/19  9:20a   54.1   54.1   53.5    79   47.7   8.0   SSW   1.33  13.0    SE   51.4   53.8   51.1   62.6  29.851  0.00  0.00   578     8.29    601     0.0  0.00   0.0   0.076   0.000   70.1    50   50.6   68.4   9.25  .0738    0.000   209    5    100.0   10 
 5/20/19  9:30a   54.6   54.6   54.1    76   47.2   8.0   SSW   1.33  15.0    SW   52.0   54.1   51.5   63.2  29.852  0.00  0.00   612     8.77    628     0.0  0.00   0.0   0.072   0.000   70.1    50   50.6   68.4   9.25  .0738    0.000   211    5    100.0   10 
 5/20/19  9:40a   54.2   54.9   54.2    76   46.8  11.0   SSW   1.83  19.0   SSW   49.6   53.7   49.1   54.5  29.854  0.00  0.00   293     4.20    649     0.0  0.00   0.0   0.075   0.000   70.2    50   50.7   68.6   9.25  .0738    0.000   211    5    100.0   10 
 5/20/19  9:50a   54.4   54.4   54.2    77   47.3  12.0   SSW   2.00  18.0   SSW   49.3   54.0   48.9   57.9  29.854  0.00  0.00   613     8.79    693     0.0  0.00   0.0   0.074   0.000   70.2    50   50.7   68.6   9.25  .0738    0.000   213    5    100.0   10 
 5/20/19 10:00a   54.3   54.5   54.2    78   47.6  13.0   SSW   2.17  17.0   SSW   48.8   53.9   48.4   57.9  29.855  0.00  0.00   683     9.79    691     0.0  0.00   0.0   0.074   0.000   70.2    50   50.7   68.6   9.25  .0738    0.012   212    5    100.0   10 
 5/20/19 10:10a   54.2   54.3   54.2    79   47.8  14.0   SSW   2.33  20.0   SSW   48.3   53.9   48.0   57.2  29.858  0.00  0.00   707    10.13    729     0.0  0.00   0.0   0.075   0.000   70.2    50   50.7   68.6   9.25  .0738    0.000   213    5    100.0   10 
 5/20/19 10:20a   54.0   54.4   53.9    80   48.0  15.0   SSW   2.50  23.0   SSW   47.7   53.7   47.4   56.6  29.857  0.00  0.00   756    10.84    784     0.0  0.00   0.0   0.076   0.000   70.2    50   50.7   68.6   9.25  .0738    0.000   213    5    100.0   10 
 5/20/19 10:30a   54.2   54.2   53.9    81   48.5  14.0   SSW   2.33  22.0   SSE   48.3   53.9   48.0   57.4  29.854  0.00  0.00   779    11.17    795     0.0  0.00   0.0   0.075   0.000   70.3    50   50.8   68.7   9.25  .0738    0.000   213    5    100.0   10 
 5/20/19 10:40a   54.5   54.6   54.2    79   48.1  12.0   SSW   2.00  18.0   SSW   49.5   54.2   49.2   59.2  29.854  0.00  0.00   802    11.50    819     0.0  0.00   0.0   0.073   0.000   70.3    50   50.8   68.7   9.25  .0738    0.000   211    5    100.0   10 
 5/20/19 10:50a   54.9   54.9   54.5    77   47.8  13.0   SSW   2.17  20.0   SSW   49.5   54.5   49.1   58.2  29.851  0.00  0.00   790    11.32    810     0.0  0.00   0.0   0.070   0.000   70.4    50   50.9   68.8   9.25  .0738    0.000   212    5    100.0   10 
 5/20/19 11:00a   55.2   55.3   54.9    76   47.8  13.0   SSW   2.17  20.0   SSE   49.8   54.7   49.3   59.1  29.849  0.00  0.00   868    12.44    981     0.0  0.00   0.0   0.068   0.000   70.4    50   50.9   68.8   9.25  .0738    0.016   212    5    100.0   10 
 5/20/19 11:10a   55.4   55.5   55.2    76   48.0  13.0   SSW   2.17  22.0     S   50.0   54.9   49.5   59.1  29.848  0.00  0.00   878    12.59    963     0.0  0.00   0.0   0.067   0.000   70.4    50   50.9   68.8   9.25  .0737    0.000   211    5    100.0   10 
 5/20/19 11:20a   55.3   55.5   55.0    76   47.9  14.0   SSW   2.33  20.0   SSW   49.5   54.8   49.0   57.8  29.843  0.00  0.00   862    12.36    884     0.0  0.00   0.0   0.067   0.000   70.5    50   51.0   68.9   9.25  .0737    0.000   212    5    100.0   10 
 5/20/19 11:30a   55.2   55.4   55.1    76   47.8  15.0   SSW   2.50  22.0     S   49.1   54.7   48.6   57.3  29.846  0.00  0.00   893    12.80    932     0.0  0.00   0.0   0.068   0.000   70.5    50   51.0   68.9   9.25  .0737    0.000   213    5    100.0   10 
 5/20/19 11:40a   55.8   55.8   55.2    75   48.0  14.0   SSW   2.33  23.0     S   50.1   55.2   49.5   59.7  29.843  0.00  0.00  1008    14.45   1081     0.0  0.00   0.0   0.064   0.000   70.6    50   51.1   69.1   9.25  .0737    0.000   211    5    100.0   10 
 5/20/19 11:50a   55.9   56.2   55.8    72   47.0  14.0   SSW   2.33  20.0   SSE   50.2   55.2   49.5   57.7  29.838  0.00  0.00   715    10.25   1104     0.0  0.00   0.0   0.063   0.000   70.7    50   51.1   69.2   9.25  .0737    0.000   212    5    100.0   10 
 5/20/19 12:00p   56.0   56.1   55.8    71   46.7  15.0   SSW   2.50  24.0   SSE   50.0   55.2   49.2   57.6  29.832  0.00  0.00   929    13.32   1253     0.0  0.00   0.0   0.063   0.000   70.7    50   51.1   69.2   9.25  .0737    0.020   213    5    100.0   10 
 5/20/19 12:10p   56.0   56.2   55.9    71   46.7  15.0   SSW   2.50  24.0     S   50.0   55.2   49.2   59.1  29.829  0.00  0.00  1074    15.40   1074     0.0  0.00   0.0   0.063   0.000   70.8    50   51.2   69.3   9.25  .0736    0.000   213    5    100.0   10 
 5/20/19 12:20p   56.3   56.3   56.0    70   46.6  16.0   SSW   2.67  23.0   SSW   50.0   55.5   49.2   57.1  29.821  0.00  0.00   929    13.32    986     0.0  0.00   0.0   0.060   0.000   70.8    50   51.2   69.3   9.25  .0736    0.000   213    5    100.0   10 
 5/20/19 12:30p   56.2   56.4   56.1    71   46.9  18.0   SSW   3.00  26.0    SW   49.3   55.4   48.5   56.0  29.818  0.00  0.00   949    13.60    954     0.0  0.00   0.0   0.061   0.000   70.8    50   51.2   69.3   9.25  .0736    0.000   212    5    100.0   10 
 5/20/19 12:40p   56.2   56.2   56.0    72   47.3  18.0   SSW   3.00  24.0     S   49.3   55.5   48.6   56.0  29.819  0.00  0.00   949    13.60    953     0.0  0.00   0.0   0.061   0.000   70.9    50   51.3   69.5   9.25  .0736    0.000   211    5    100.0   10 
 5/20/19 12:50p   56.2   56.5   56.2    72   47.3  16.0   SSW   2.67  26.0     S   49.9   55.5   49.2   57.0  29.815  0.00  0.00   950    13.62    953     0.0  0.00   0.0   0.061   0.000   70.9    50   51.3   69.5   9.25  .0736    0.000   211    5    100.0   10 
 5/20/19  1:00p   56.5   56.6   56.2    71   47.2  16.0   SSW   2.67  26.0   SSW   50.3   55.8   49.6   57.4  29.813  0.00  0.00   950    13.62    953     0.0  0.00   0.0   0.059   0.000   70.9    50   51.3   69.5   9.25  .0736    0.021   214    5    100.0   10 
 5/20/19  1:10p   56.4   56.5   56.2    74   48.2  17.0   SSW   2.83  24.0   SSW   49.8   55.8   49.2   56.8  29.814  0.00  0.00   954    13.68    958     0.0  0.00   0.0   0.060   0.000   71.0    50   51.4   69.6   9.25  .0736    0.000   212    5    100.0   10 
 5/20/19  1:20p   56.1   56.4   56.0    74   47.9  18.0   SSW   3.00  27.0   SSW   49.2   55.5   48.6   56.0  29.817  0.00  0.00   959    13.75    962     0.0  0.00   0.0   0.062   0.000   71.1    50   51.5   69.8   9.25  .0736    0.000   211    5    100.0   10 
 5/20/19  1:30p   56.2   56.2   55.9    74   48.0  17.0   SSW   2.83  28.0     S   49.6   55.6   49.0   56.6  29.818  0.00  0.00   956    13.70    960     0.0  0.00   0.0   0.061   0.000   71.1    50   51.5   69.8   9.25  .0736    0.000   214    5    100.0   10 
 5/20/19  1:40p   56.5   56.5   56.1    75   48.7  14.0   SSW   2.33  23.0   SSE   50.9   56.0   50.4   58.7  29.819  0.00  0.00   950    13.62    953     0.0  0.00   0.0   0.059   0.000   71.2    50   51.6   69.9   9.25  .0735    0.000   212    5    100.0   10 
 5/20/19  1:50p   56.6   56.6   56.5    74   48.4  14.0   SSW   2.33  21.0     S   51.0   56.0   50.4   58.9  29.815  0.00  0.00   960    13.76    967     0.0  0.00   0.0   0.058   0.000   71.2    50   51.6   69.9   9.25  .0735    0.000   212    5    100.0   10 
 5/20/19  2:00p   56.9   56.9   56.6    74   48.7  14.0   SSW   2.33  20.0     S   51.4   56.3   50.8   59.2  29.812  0.00  0.00   947    13.58    962     0.0  0.00   0.0   0.056   0.000   71.3    50   51.7   70.1   9.25  .0735    0.022   214    5    100.0   10 
 5/20/19  2:10p   56.9   57.0   56.8    73   48.3  14.0   SSW   2.33  23.0    SW   51.4   56.3   50.8   59.8  29.808  0.00  0.00   993    14.23   1041     0.0  0.00   0.0   0.056   0.000   71.4    50   51.8   70.2   9.25  .0735    0.000   212    5    100.0   10 
 5/20/19  2:20p   57.1   57.1   56.8    72   48.2  14.0   SSW   2.33  21.0   SSW   51.6   56.4   50.9   59.0  29.810  0.00  0.00   899    12.89   1072     0.0  0.00   0.0   0.055   0.000   71.4    50   51.8   70.2   9.25  .0735    0.000   212    5    100.0   10 
 5/20/19  2:30p   56.9   57.1   56.9    72   48.0  14.0   SSW   2.33  21.0   SSE   51.4   56.2   50.7   58.9  29.809  0.00  0.00   716    10.26    969     0.0  0.00   0.0   0.056   0.000   71.5    50   51.9   70.3   9.25  .0735    0.000   213    5    100.0   10 
 5/20/19  2:40p   57.2   57.2   57.0    71   47.9  14.0   SSW   2.33  22.0     S   51.7   56.5   51.0   59.8  29.807  0.00  0.00   940    13.48    970     0.0  0.00   0.0   0.054   0.000   71.6    50   52.0   70.5   9.25  .0734    0.000   212    5    100.0   10 
 5/20/19  2:50p   57.1   57.3   57.1    72   48.2  15.0   SSW   2.50  22.0     S   51.2   56.4   50.5   59.5  29.803  0.00  0.00   959    13.75    977     0.0  0.00   0.0   0.055   0.000   71.6    50   52.0   70.5   9.25  .0734    0.000   213    5    100.0   10 
 5/20/19  3:00p   57.0   57.4   57.0    70   47.3  14.0   SSW   2.33  21.0   SSW   51.5   56.2   50.7   58.3  29.799  0.00  0.00   811    11.63   1035     0.0  0.00   0.0   0.056   0.000   71.7    50   52.1   70.6   9.25  .0734    0.020   213    5    100.0   10 
 5/20/19  3:10p   56.8   57.0   56.7    71   47.5  13.0   SSW   2.17  24.0   SSW   51.7   56.1   51.0   57.2  29.790  0.00  0.00   441     6.32    524     0.0  0.00   0.0   0.057   0.000   71.8    50   52.2   70.8   9.25  .0734    0.000   212    5    100.0   10 
 5/20/19  3:20p   56.8   56.8   56.7    70   47.1  16.0   SSW   2.67  25.0   SSW   50.6   56.0   49.8   56.2  29.788  0.00  0.00   507     7.27    561     0.0  0.00   0.0   0.057   0.000   71.9    50   52.2   70.9   9.25  .0733    0.000   211    5    100.0   10 
 5/20/19  3:30p   56.4   56.8   56.4    70   46.7  16.0   SSW   2.67  27.0     S   50.1   55.6   49.3   55.1  29.785  0.00  0.00   446     6.39    571     0.0  0.00   0.0   0.060   0.000   71.9    50   52.2   70.9   9.25  .0733    0.000   214    5    100.0   10 
 5/20/19  3:40p   57.5   57.5   56.4    69   47.4  14.0   SSW   2.33  21.0   SSW   52.1   56.7   51.3   59.7  29.783  0.00  0.00   791    11.34   1056     0.0  0.00   0.0   0.052   0.000   72.0    50   52.3   71.1   9.25  .0733    0.000   213    5    100.0   10 
 5/20/19  3:50p   58.0   58.0   57.5    68   47.5  14.0   SSW   2.33  26.0    SW   52.6   57.1   51.7   61.2  29.781  0.00  0.00   844    12.10    879     0.0  0.00   0.0   0.049   0.000   72.0    50   52.3   71.1   9.25  .0733    0.000   213    5    100.0   10 
 5/20/19  4:00p   57.6   58.1   57.6    70   47.9  14.0   SSW   2.33  20.0   SSE   52.2   56.8   51.4   60.9  29.777  0.00  0.00   826    11.84    960     0.0  0.00   0.0   0.051   0.000   72.0    50   52.3   71.1   9.25  .0733    0.016   211    5    100.0   10 
 5/20/19  4:10p   57.4   57.6   57.3    69   47.3  15.0   SSW   2.50  24.0   SSE   51.6   56.6   50.8   58.5  29.776  0.00  0.00   616     8.83    770     0.0  0.00   0.0   0.053   0.000   72.1    50   52.4   71.2   9.25  .0733    0.000   213    5    100.0   10 
 5/20/19  4:20p   57.0   57.3   56.9    72   48.1  14.0   SSW   2.33  23.0   SSE   51.5   56.3   50.8   58.0  29.774  0.00  0.00   484     6.94    918     0.0  0.00   0.0   0.056   0.000   72.2    50   52.5   71.4   9.25  .0733    0.000   212    5    100.0   10 
 5/20/19  4:30p   56.3   57.0   56.3    72   47.4  15.0   SSW   2.50  25.0     S   50.3   55.6   49.6   53.9  29.774  0.00  0.00   289     4.14    371     0.0  0.00   0.0   0.060   0.000   72.2    50   52.5   71.4   9.25  .0733    0.000   214    5    100.0   10 
 5/20/19  4:40p   55.8   56.2   55.8    73   47.3  15.0   SSW   2.50  26.0   SSE   49.8   55.1   49.1   51.5  29.770  0.00  0.00   184     2.64    285     0.0  0.00   0.0   0.064   0.000   72.2    50   52.5   71.4   9.25  .0732    0.000   212    5    100.0   10 
 5/20/19  4:50p   55.6   55.8   55.6    74   47.4  14.0   SSW   2.33  23.0    SW   49.9   55.0   49.3   51.4  29.768  0.00  0.00   159     2.28    174     0.0  0.00   0.0   0.065   0.000   72.3    50   52.6   71.5   9.25  .0732    0.000   209    5    100.0   10 
 5/20/19  5:00p   55.7   55.7   55.6    74   47.5  15.0   SSW   2.50  26.0   SSW   49.7   55.1   49.1   52.3  29.761  0.00  0.00   215     3.08    360     0.0  0.00   0.0   0.065   0.000   72.3    50   52.6   71.5   9.25  .0732    0.009   213    5    100.0   10 
 5/20/19  5:10p   55.7   55.8   55.6    74   47.5  14.0   SSW   2.33  26.0     S   50.0   55.1   49.4   54.9  29.756  0.00  0.00   318     4.56    350     0.0  0.00   0.0   0.065   0.000   72.3    50   52.6   71.5   9.25  .0732    0.000   213    5    100.0   10 
 5/20/19  5:20p   55.5   55.8   55.5    74   47.3  17.0   SSW   2.83  27.0   SSE   48.8   54.9   48.2   52.3  29.752  0.00  0.00   255     3.66    369     0.0  0.00   0.0   0.066   0.000   72.4    50   52.7   71.7   9.25  .0732    0.000   213    5    100.0   10 
 5/20/19  5:30p   54.8   55.5   54.8    76   47.4  18.0   SSW   3.00  32.0    SW   47.8   54.3   47.3   48.7  29.749  0.00  0.00   121     1.73    172     0.0  0.00   0.0   0.071   0.000   72.4    50   52.7   71.7   9.25  .0732    0.000   211    5    100.0   10 
 5/20/19  5:40p   54.0   54.8   54.0    76   46.6  17.0   SSW   2.83  39.0   SSW   47.1   53.5   46.6   46.7  29.749  0.00  0.00    63     0.90    102     0.0  0.00   0.0   0.076   0.000   72.4    50   52.7   71.7   9.25  .0732    0.000   210    5    100.0   10 
 5/20/19  5:50p   52.9   54.0   52.9    79   46.6  14.0   SSW   2.33  37.0   SSW   46.8   52.6   46.5   46.7  29.756  0.01  0.00    65     0.93     76     0.0  0.00   0.0   0.084   0.000   72.4    50   52.7   71.7   9.25  .0732    0.000   211    5    100.0   10 
 5/20/19  6:00p   53.1   53.1   52.9    81   47.4  13.0   SSW   2.17  25.0   SSE   47.4   52.8   47.1   47.9  29.752  0.01  0.07    81     1.16    105     0.0  0.00   0.0   0.083   0.000   72.3    50   52.6   71.5   9.25  .0732    0.006   212    5    100.0   10 
 5/20/19  6:10p   53.3   53.5   53.1    81   47.6  13.0   SSW   2.17  24.0   SSE   47.6   53.0   47.3   48.7  29.747  0.00  0.04    96     1.38    109     0.0  0.00   0.0   0.081   0.000   72.3    50   52.6   71.5   9.25  .0732    0.000   213    5    100.0   10 
 5/20/19  6:20p   53.2   53.3   53.2    81   47.5  16.0   SSW   2.67  30.0    SW   46.5   52.9   46.2   46.6  29.744  0.00  0.00    66     0.95     72     0.0  0.00   0.0   0.082   0.000   72.3    50   52.6   71.5   9.25  .0732    0.000   213    5    100.0   10 
 5/20/19  6:30p   53.2   53.3   53.2    82   47.8  16.0   SSW   2.67  29.0   SSE   46.5   53.0   46.3   46.9  29.741  0.00  0.00    67     0.96     79     0.0  0.00   0.0   0.082   0.000   72.3    50   52.6   71.5   9.25  .0732    0.000   213    5    100.0   10 
 5/20/19  6:40p   53.2   53.2   53.0    83   48.2  14.0   SSW   2.33  24.0     S   47.1   53.0   46.9   47.2  29.737  0.01  0.00    56     0.80     69     0.0  0.00   0.0   0.082   0.000   72.3    50   52.6   71.5   9.25  .0731    0.000   207    5    100.0   10 
 5/20/19  6:50p   52.8   53.2   52.8    83   47.8  15.0   SSW   2.50  27.0    SW   46.4   52.6   46.2   45.7  29.734  0.00  0.00    32     0.46     42     0.0  0.00   0.0   0.085   0.000   72.3    50   52.6   71.5   9.25  .0731    0.000   212    5    100.0   10 
 5/20/19  7:00p   52.7   52.8   52.7    83   47.7  15.0   SSW   2.50  24.0     S   46.3   52.5   46.1   45.5  29.729  0.00  0.00    27     0.39     32     0.0  0.00   0.0   0.085   0.000   72.2    50   52.5   71.4   9.25  .0731    0.003   212    5    100.0   10 
 5/20/19  7:10p   52.7   52.8   52.6    83   47.7  13.0   SSW   2.17  25.0   SSW   47.0   52.5   46.8   46.1  29.729  0.00  0.00    24     0.34     32     0.0  0.00   0.0   0.085   0.000   72.2    50   52.5   71.4   9.25  .0731    0.000   210    5    100.0   10 
 5/20/19  7:20p   52.9   52.9   52.7    83   47.9  12.0   SSW   2.00  21.0    SW   47.6   52.7   47.4   45.8  29.726  0.00  0.00    29     0.42     37     0.0  0.00   0.0   0.084   0.000   72.1    50   52.4   71.2   9.25  .0732    0.000   213    5    100.0   10 
 5/20/19  7:30p   52.6   52.9   52.6    83   47.6  13.0   SSW   2.17  23.0   SSE   46.9   52.5   46.8   45.0  29.723  0.01  0.00    14     0.20     21     0.0  0.00   0.0   0.086   0.000   72.1    50   52.4   71.2   9.25  .0731    0.000   212    5    100.0   10 
 5/20/19  7:40p   52.4   52.6   52.4    84   47.7  11.0   SSW   1.83  25.0     S   47.5   52.3   47.4   45.4  29.724  0.01  0.06    14     0.20     18     0.0  0.00   0.0   0.087   0.000   72.1    50   52.4   71.2   9.25  .0731    0.000   210    5    100.0   10 
 5/20/19  7:50p   52.1   52.4   52.1    84   47.4  10.0   SSW   1.67  18.0   SSW   47.7   52.0   47.6   45.7  29.719  0.00  0.04    19     0.27     19     0.0  0.00   0.0   0.090   0.000   72.0    50   52.3   71.1   9.25  .0732    0.000   214    5    100.0   10 
 5/20/19  8:00p   52.2   52.2   52.1    84   47.5   8.0   SSW   1.33  14.0     S   49.1   52.1   49.0   46.9  29.716  0.00  0.00    19     0.27     21     0.0  0.00   0.0   0.089   0.000   72.0    50   52.3   71.1   9.25  .0731    0.002   211    5    100.0   10 
 5/20/19  8:10p   52.2   52.3   52.1    85   47.8   9.0   SSW   1.50  16.0   SSW   48.4   52.2   48.4   46.3  29.714  0.01  0.00    15     0.22     19     0.0  0.00   0.0   0.089   0.000   71.9    50   52.2   70.9   9.25  .0732    0.000   212    5    100.0   10 
 5/20/19  8:20p   51.9   52.2   51.9    85   47.5   6.0     S   1.00  13.0   SSW   49.9   51.9   49.9   47.5  29.709  0.01  0.04     7     0.10     11     0.0  0.00   0.0   0.091   0.000   71.9    50   52.2   70.9   9.25  .0731    0.000   214    5    100.0   10 
 5/20/19  8:30p   51.9   52.0   51.9    85   47.5   4.0     S   0.67   8.0   SSE   51.1   51.9   51.1   48.5  29.710  0.00  0.04     0     0.00      0     0.0  0.00   0.0   0.091   0.000   71.8    50   52.2   70.8   9.25  .0732    0.000   212    5    100.0   10 
 5/20/19  8:40p   52.3   52.3   51.9    85   47.9   5.0   SSW   0.83   9.0   SSW   50.9   52.3   50.9   48.3  29.709  0.00  0.00     0     0.00      0     0.0  0.00   0.0   0.088   0.000   71.8    50   52.2   70.8   9.25  .0732    0.000   210    5    100.0   10 
 5/20/19  8:50p   52.3   52.4   52.3    85   47.9   5.0   SSW   0.83   9.0    SW   50.9   52.3   50.9   48.3  29.708  0.00  0.00     0     0.00      0     0.0  0.00   0.0   0.088   0.000   71.7    50   52.1   70.6   9.25  .0732    0.000   213    5    100.0   10 
 5/20/19  9:00p   51.8   52.3   51.8    84   47.1   3.0     S   0.50   8.0    SE   51.7   51.8   51.7   49.1  29.703  0.00  0.00     0     0.00      0     0.0  0.00   0.0   0.092   0.000   71.7    50   52.1   70.6   9.25  .0732    0.001   210    5    100.0   10 
 5/20/19  9:10p   51.7   51.8   51.6    84   47.0   6.0     S   1.00  15.0   SSE   49.7   51.7   49.7   47.1  29.701  0.00  0.00     0     0.00      0     0.0  0.00   0.0   0.092   0.000   71.6    50   52.0   70.5   9.25  .0732    0.000   210    5    100.0   10 
 5/20/19  9:20p   51.9   51.9   51.6    84   47.2   7.0   SSW   1.17  15.0   SSE   49.5   51.9   49.5   46.9  29.702  0.00  0.00     0     0.00      0     0.0  0.00   0.0   0.091   0.000   71.6    50   52.0   70.5   9.25  .0732    0.000   211    5    100.0   10 
 5/20/19  9:30p   51.9   52.0   51.9    83   46.9  10.0   SSW   1.67  22.0   SSE   47.5   51.8   47.4   45.1  29.703  0.00  0.00     0     0.00      0     0.0  0.00   0.0   0.091   0.000   71.6    50   52.0   70.5   9.25  .0732    0.000   211    5    100.0   10 
 5/20/19  9:40p   51.8   51.9   51.8    83   46.8   9.0   SSW   1.50  15.0     S   48.0   51.7   47.9   45.5  29.701  0.00  0.00     0     0.00      0     0.0  0.00   0.0   0.092   0.000   71.5    50   51.9   70.3   9.25  .0732    0.000   210    5    100.0   10 
 5/20/19  9:50p   51.9   52.0   51.8    83   46.9   8.0   SSW   1.33  16.0   SSE   48.8   51.8   48.7   46.2  29.692  0.00  0.00     0     0.00      0     0.0  0.00   0.0   0.091   0.000   71.5    50   51.9   70.3   9.25  .0732    0.000   212    5    100.0   10 
 5/20/19 10:00p   52.0   52.1   51.9    83   47.0   8.0   SSW   1.33  15.0    SW   48.9   51.9   48.8   46.3  29.687  0.00  0.00     0     0.00      0     0.0  0.00   0.0   0.090   0.000   71.4    50   51.8   70.2   9.25  .0732    0.001   211    5    100.0   10 
 5/20/19 10:10p   52.1   52.2   52.0    82   46.8   8.0   SSW   1.33  21.0   ESE   49.0   52.0   48.9   46.4  29.685  0.01  0.00     0     0.00      0     0.0  0.00   0.0   0.090   0.000   71.4    50   51.8   70.2   9.25  .0732    0.000   212    5    100.0   10 
 5/20/19 10:20p   52.3   52.3   52.2    81   46.6   9.0   SSW   1.50  18.0   SSE   48.6   52.1   48.4   46.0  29.683  0.00  0.00     0     0.00      0     0.0  0.00   0.0   0.088   0.000   71.3    50   51.7   70.1   9.25  .0732    0.000   213    5    100.0   10 
 5/20/19 10:30p   52.4   52.4   52.3    81   46.7   8.0   SSW   1.33  17.0    SW   49.4   52.2   49.2   46.7  29.677  0.00  0.00     0     0.00      0     0.0  0.00   0.0   0.087   0.000   71.2    50   51.6   69.9   9.25  .0732    0.000   210    5    100.0   10 
 5/20/19 10:40p   52.3   52.4   52.3    81   46.6   7.0   SSW   1.17  13.0   SSW   50.0   52.1   49.8   47.2  29.677  0.00  0.00     0     0.00      0     0.0  0.00   0.0   0.088   0.000   71.2    50   51.6   69.9   9.25  .0732    0.000   211    5    100.0   10 
 5/20/19 10:50p   52.4   52.5   52.3    80   46.4   7.0   SSW   1.17  13.0     S   50.1   52.2   49.9   47.3  29.670  0.00  0.00     0     0.00      0     0.0  0.00   0.0   0.087   0.000   71.2    50   51.6   69.9   9.25  .0732    0.000   212    5    100.0   10 
 5/20/19 11:00p   52.4   52.4   52.3    80   46.4   6.0   SSW   1.00  12.0    SW   50.5   52.2   50.3   47.7  29.670  0.00  0.00     0     0.00      0     0.0  0.00   0.0   0.087   0.000   71.1    50   51.5   69.8   9.25  .0732    0.001   212    5    100.0   10 
 5/20/19 11:10p   52.4   52.5   52.4    80   46.4   6.0   SSW   1.00  14.0   SSW   50.5   52.2   50.3   47.7  29.667  0.00  0.00     0     0.00      0     0.0  0.00   0.0   0.087   0.000   71.1    50   51.5   69.8   9.25  .0732    0.000   213    5    100.0   10 
 5/20/19 11:20p   52.5   52.5   52.4    80   46.5   6.0   SSW   1.00  13.0   SSW   50.6   52.3   50.4   47.8  29.666  0.00  0.00     0     0.00      0     0.0  0.00   0.0   0.087   0.000   71.0    49   50.9   69.5   9.05  .0732    0.000   213    5    100.0   10 
 5/20/19 11:30p   52.7   52.7   52.4    80   46.7   6.0   SSW   1.00  11.0   SSW   50.8   52.4   50.5   47.9  29.668  0.00  0.00     0     0.00      0     0.0  0.00   0.0   0.085   0.000   71.0    50   51.4   69.6   9.25  .0732    0.000   213    5    100.0   10 
 5/20/19 11:40p   52.7   52.7   52.7    79   46.4   6.0   SSW   1.00  13.0    SE   50.8   52.4   50.5   47.9  29.661  0.00  0.00     0     0.00      0     0.0  0.00   0.0   0.085   0.000   70.9    49   50.8   69.4   9.05  .0732    0.000   211    5    100.0   10 
 5/20/19 11:50p   52.6   52.7   52.5    80   46.6   5.0   SSW   0.83  14.0     S   51.3   52.3   51.0   48.4  29.663  0.00  0.00     0     0.00      0     0.0  0.00   0.0   0.086   0.000   70.9    49   50.8   69.4   9.05  .0732    0.000   212    5    100.0   10 
Email: AdamSPAM@StormwatchersRetreat.com (To send me email remove the word 'SPAM' from my email address.)